Terminal Aerodrome Forecast
Issued by NWS Sterling, VA

Current Version | Previous Version | Text Only | Print | Product List | Glossary On
Versions: 1 2 3 4 5 6 7 8 9 10 11 12 13 14 15 16 17
000
FTUS41 KLWX 110525
TAFMRB
TAF
KMRB 110525Z 1106/1206 00000KT P6SM SCT020 BKN050 BKN130
      TEMPO 1107/1110 3SM BR
     FM111000 32008KT P6SM FEW050 SCT130
     FM111800 31008KT P6SM SCT050
     FM112200 29008KT P6SM VCSH BKN050 BKN130
     FM120200 34008KT P6SM SCT050=

USA.gov is the U.S. government's official web portal to all federal, state and local government web resources and services.